createdAt,value
2023-03-02T00:02:02.389Z,56.91
2023-03-02T00:04:47.536Z,57.04
2023-03-02T00:07:22.128Z,57.08
2023-03-02T00:09:51.512Z,57.15
2023-03-02T00:12:20.589Z,57.16
2023-03-02T00:14:49.507Z,57.19
2023-03-02T00:17:18.110Z,57.51
2023-03-02T00:19:47.569Z,57.31
2023-03-02T00:22:16.272Z,57.21
2023-03-02T00:24:45.109Z,57.41
2023-03-02T00:27:13.887Z,57.48
2023-03-02T00:29:42.953Z,57.36
2023-03-02T00:32:18.480Z,57.45
2023-03-02T00:34:47.781Z,57.80
2023-03-02T00:37:17.104Z,57.78
2023-03-02T00:39:45.701Z,57.70
2023-03-02T00:42:14.922Z,57.45
2023-03-02T00:44:43.974Z,57.43
2023-03-02T00:47:12.682Z,57.49
2023-03-02T00:49:42.183Z,57.67
2023-03-02T00:52:10.932Z,57.74
2023-03-02T00:54:39.805Z,57.62
2023-03-02T00:57:09.039Z,57.83
2023-03-02T00:59:39.374Z,57.68
2023-03-02T01:02:28.730Z,57.88
2023-03-02T01:04:57.724Z,57.96
2023-03-02T01:07:28.678Z,57.80
2023-03-02T01:09:57.882Z,58.01
2023-03-02T01:12:26.762Z,57.39
2023-03-02T01:14:56.176Z,57.98
2023-03-02T01:17:25.833Z,57.67
2023-03-02T01:19:55.559Z,57.73
2023-03-02T01:22:24.943Z,57.95
2023-03-02T01:24:53.911Z,58.12
2023-03-02T01:27:22.887Z,57.92
2023-03-02T01:29:51.588Z,57.95
2023-03-02T01:32:20.351Z,57.98
2023-03-02T01:34:50.136Z,57.90
2023-03-02T01:37:18.696Z,58.14
2023-03-02T01:39:47.585Z,57.90
2023-03-02T01:42:16.873Z,58.11
2023-03-02T01:44:49.134Z,58.18
2023-03-02T01:47:26.340Z,58.43
2023-03-02T01:50:23.750Z,58.57
2023-03-02T01:52:56.766Z,58.04
2023-03-02T01:55:30.225Z,57.90
2023-03-02T01:58:01.749Z,58.24
2023-03-02T02:00:36.034Z,57.98
2023-03-02T02:03:16.506Z,57.91
2023-03-02T02:05:52.651Z,58.22
2023-03-02T02:08:23.312Z,58.39
2023-03-02T02:10:51.902Z,58.15
2023-03-02T02:13:20.759Z,58.24
2023-03-02T02:15:50.616Z,58.46
2023-03-02T02:18:19.313Z,58.46
2023-03-02T02:20:49.821Z,58.50
2023-03-02T02:23:22.858Z,58.56
2023-03-02T02:25:59.032Z,58.54
2023-03-02T02:28:41.640Z,58.53
2023-03-02T02:31:33.325Z,58.29
2023-03-02T02:34:18.091Z,58.89
2023-03-02T02:36:50.202Z,58.68
2023-03-02T02:39:30.076Z,58.77
2023-03-02T02:42:04.802Z,58.64
2023-03-02T02:44:34.091Z,58.77
2023-03-02T02:47:03.082Z,58.88
2023-03-02T02:49:36.180Z,58.78
2023-03-02T02:52:07.409Z,59.06
2023-03-02T02:54:38.159Z,58.87
2023-03-02T02:57:08.077Z,58.84
2023-03-02T02:59:43.123Z,58.69
2023-03-02T03:02:19.916Z,58.78
2023-03-02T03:04:49.706Z,58.52
2023-03-02T03:07:22.448Z,58.75
2023-03-02T03:10:20.048Z,58.77
2023-03-02T03:12:49.844Z,58.89
2023-03-02T03:15:19.017Z,58.96
2023-03-02T03:17:55.548Z,59.05
2023-03-02T03:20:26.496Z,59.04
2023-03-02T03:22:55.433Z,59.14
2023-03-02T03:25:26.847Z,59.28
2023-03-02T03:27:55.896Z,59.19
2023-03-02T03:30:24.492Z,58.95
2023-03-02T03:32:53.809Z,59.18
2023-03-02T03:35:23.139Z,58.96
2023-03-02T03:37:52.618Z,58.99
2023-03-02T03:40:21.605Z,59.34
2023-03-02T03:42:50.633Z,59.20
2023-03-02T03:45:20.055Z,59.28
2023-03-02T03:47:48.875Z,59.42
2023-03-02T03:50:18.010Z,59.31
2023-03-02T03:52:46.607Z,59.30
2023-03-02T03:55:19.960Z,59.48
2023-03-02T03:57:49.586Z,59.38
2023-03-02T04:00:18.678Z,59.57
2023-03-02T04:02:57.609Z,59.37
2023-03-02T04:05:29.669Z,59.32
2023-03-02T04:08:02.639Z,59.44
2023-03-02T04:10:32.403Z,59.39
2023-03-02T04:13:02.040Z,59.34
2023-03-02T04:15:31.241Z,59.45
2023-03-02T04:18:01.259Z,59.09
2023-03-02T04:20:31.251Z,59.19
2023-03-02T04:23:00.391Z,59.21
2023-03-02T04:25:31.055Z,59.21
2023-03-02T04:28:05.723Z,59.28
2023-03-02T04:30:38.149Z,59.58
2023-03-02T04:33:07.579Z,59.56
2023-03-02T04:35:37.324Z,59.45
2023-03-02T04:38:06.229Z,59.58
2023-03-02T04:40:35.604Z,59.78
2023-03-02T04:43:04.179Z,59.60
2023-03-02T04:45:33.797Z,59.85
2023-03-02T04:48:03.389Z,59.80
2023-03-02T04:50:33.132Z,59.87
2023-03-02T04:53:01.993Z,60.11
2023-03-02T04:55:31.178Z,60.06
2023-03-02T04:57:59.914Z,60.07
2023-03-02T05:00:29.194Z,59.83
2023-03-02T05:02:58.789Z,59.74
2023-03-02T05:05:28.149Z,59.93
2023-03-02T05:07:58.824Z,60.02
2023-03-02T05:10:29.327Z,59.97
2023-03-02T05:12:58.588Z,59.82
2023-03-02T05:15:30.988Z,60.04
2023-03-02T05:18:00.404Z,60.09
2023-03-02T05:20:30.623Z,60.18
2023-03-02T05:23:02.596Z,60.13
2023-03-02T05:25:33.500Z,60.14
2023-03-02T05:28:02.862Z,60.38
2023-03-02T05:30:33.063Z,60.39
2023-03-02T05:33:01.947Z,60.37
2023-03-02T05:35:30.854Z,60.15
2023-03-02T05:37:59.539Z,60.45
2023-03-02T05:40:28.377Z,60.45
2023-03-02T05:42:57.204Z,60.47
2023-03-02T05:45:31.738Z,60.57
2023-03-02T05:48:00.969Z,60.12
2023-03-02T05:50:29.893Z,60.38
2023-03-02T05:53:00.751Z,60.09
2023-03-02T05:55:30.662Z,60.10
2023-03-02T05:57:59.174Z,60.07
2023-03-02T06:00:28.247Z,60.08
2023-03-02T06:02:57.567Z,60.33
2023-03-02T06:05:26.984Z,60.21
2023-03-02T06:07:55.881Z,60.57
2023-03-02T06:10:25.447Z,60.43
2023-03-02T06:12:54.131Z,60.64
2023-03-02T06:15:23.355Z,60.51
2023-03-02T06:17:52.516Z,60.82
2023-03-02T06:20:21.126Z,61.28
2023-03-02T06:22:49.943Z,60.81
2023-03-02T06:25:22.474Z,60.66
2023-03-02T06:27:52.099Z,60.70
2023-03-02T06:30:25.716Z,60.97
2023-03-02T06:32:55.352Z,60.99
2023-03-02T06:35:24.471Z,60.64
2023-03-02T06:37:53.359Z,60.51
2023-03-02T06:40:22.719Z,60.48
2023-03-02T06:42:52.015Z,59.98
2023-03-02T06:45:20.589Z,60.17
2023-03-02T06:47:49.263Z,60.29
2023-03-02T06:50:18.364Z,60.33
2023-03-02T06:52:46.994Z,60.04
2023-03-02T06:55:15.938Z,60.34
2023-03-02T06:57:45.388Z,60.35
2023-03-02T07:00:17.594Z,59.62
2023-03-02T07:02:47.114Z,59.34
2023-03-02T07:05:16.033Z,59.51
2023-03-02T07:07:45.124Z,59.78
2023-03-02T07:10:14.059Z,59.97
2023-03-02T07:12:46.099Z,58.68
2023-03-02T07:15:15.003Z,58.18
2023-03-02T07:17:45.138Z,58.58
2023-03-02T07:20:15.387Z,58.01
2023-03-02T07:22:44.678Z,58.88
2023-03-02T07:25:14.000Z,59.77
2023-03-02T07:27:43.335Z,59.88
2023-03-02T07:30:12.865Z,59.74
2023-03-02T07:36:38.788Z,59.84
2023-03-02T07:39:07.781Z,59.57
2023-03-02T07:41:36.319Z,59.31
2023-03-02T07:44:05.424Z,58.89
2023-03-02T07:46:34.788Z,58.38
2023-03-02T07:49:03.577Z,58.34
2023-03-02T07:51:32.527Z,58.18
2023-03-02T07:54:05.442Z,58.72
2023-03-02T07:56:33.911Z,60.14
2023-03-02T07:59:03.297Z,60.28
2023-03-02T08:01:32.520Z,60.37
2023-03-02T08:04:01.341Z,60.06
2023-03-02T08:06:30.707Z,60.21
2023-03-02T08:09:01.019Z,60.20
2023-03-02T08:11:29.658Z,60.17
2023-03-02T08:14:03.538Z,59.25
2023-03-02T08:16:32.216Z,59.68
2023-03-02T08:19:01.450Z,58.64
2023-03-02T08:21:30.422Z,58.72
2023-03-02T08:23:59.155Z,59.00
2023-03-02T08:26:28.562Z,59.17
2023-03-02T08:28:57.896Z,58.61
2023-03-02T08:31:26.719Z,58.47
2023-03-02T08:33:56.049Z,58.77
2023-03-02T08:36:24.877Z,58.45
2023-03-02T08:38:55.125Z,58.14
2023-03-02T08:41:24.649Z,58.49
2023-03-02T08:43:56.463Z,58.24
2023-03-02T08:46:25.794Z,57.80
2023-03-02T08:48:54.513Z,57.48
2023-03-02T08:51:28.046Z,57.24
2023-03-02T08:53:56.873Z,57.08
2023-03-02T08:56:36.808Z,56.99
2023-03-02T08:59:12.088Z,57.05
2023-03-02T09:01:50.139Z,56.96
2023-03-02T09:04:39.557Z,57.16
2023-03-02T09:07:08.368Z,56.58
2023-03-02T09:09:37.276Z,56.41
2023-03-02T09:12:06.699Z,56.76
2023-03-02T09:14:36.488Z,56.75
2023-03-02T09:17:05.867Z,56.11
2023-03-02T09:19:44.431Z,55.70
2023-03-02T09:22:13.894Z,55.19
2023-03-02T09:24:43.049Z,55.67
2023-03-02T09:27:11.658Z,55.83
2023-03-02T09:29:43.115Z,54.34
2023-03-02T09:32:13.829Z,54.23
2023-03-02T09:34:42.777Z,53.56
2023-03-02T09:37:11.411Z,54.10
2023-03-02T09:39:40.565Z,53.95
2023-03-02T09:42:54.724Z,54.01
2023-03-02T09:45:49.910Z,54.09
2023-03-02T09:48:47.135Z,54.30
2023-03-02T09:51:38.910Z,53.73
2023-03-02T09:54:14.880Z,52.51
2023-03-02T09:57:07.440Z,51.82
2023-03-02T09:59:43.985Z,52.51
2023-03-02T10:02:25.876Z,52.54
2023-03-02T10:04:58.411Z,52.49
2023-03-02T10:07:35.421Z,52.69
2023-03-02T10:10:14.175Z,51.93
2023-03-02T10:13:05.685Z,52.09
2023-03-02T10:15:53.528Z,52.29
2023-03-02T10:18:28.033Z,52.09
2023-03-02T10:21:06.597Z,52.08
2023-03-02T10:23:46.692Z,51.84
2023-03-02T10:26:34.509Z,51.93
2023-03-02T10:29:32.201Z,51.67
2023-03-02T10:32:06.328Z,50.78
2023-03-02T10:34:38.203Z,50.65
2023-03-02T10:37:15.251Z,51.02
2023-03-02T10:39:44.806Z,50.64
2023-03-02T10:42:21.990Z,50.68
2023-03-02T10:45:01.660Z,50.79
2023-03-02T10:47:30.633Z,50.69
2023-03-02T10:49:59.535Z,49.56
2023-03-02T10:52:29.469Z,49.87
2023-03-02T10:55:14.481Z,49.53
2023-03-02T10:57:45.382Z,49.45
2023-03-02T11:00:18.262Z,49.86
2023-03-02T11:02:57.877Z,49.96
2023-03-02T11:05:34.421Z,48.85
2023-03-02T11:08:16.955Z,48.72
2023-03-02T11:11:00.894Z,48.73
2023-03-02T11:13:35.721Z,49.31
2023-03-02T11:16:21.119Z,48.65
2023-03-02T11:19:00.038Z,49.07
2023-03-02T11:21:39.136Z,48.84
2023-03-02T11:24:24.436Z,49.01
2023-03-02T11:27:08.469Z,48.35
2023-03-02T11:29:45.116Z,48.43
2023-03-02T11:32:20.981Z,48.53
2023-03-02T11:34:58.962Z,48.58
2023-03-02T11:37:45.780Z,48.90
2023-03-02T11:40:56.704Z,48.62
2023-03-02T11:43:26.240Z,48.08
2023-03-02T11:46:10.838Z,48.60
2023-03-02T11:48:49.318Z,48.54
2023-03-02T11:51:30.624Z,47.86
2023-03-02T11:54:11.685Z,47.79
2023-03-02T11:56:40.544Z,48.21
2023-03-02T11:59:22.378Z,48.06
2023-03-02T12:01:54.849Z,47.83
2023-03-02T12:04:36.017Z,47.74
2023-03-02T12:07:20.114Z,47.72
2023-03-02T12:10:01.911Z,47.66
2023-03-02T12:12:47.593Z,47.71
2023-03-02T12:15:53.099Z,47.69
2023-03-02T12:18:21.697Z,47.69
2023-03-02T12:21:09.069Z,48.02
2023-03-02T12:24:04.318Z,47.14
2023-03-02T12:26:38.311Z,47.51
2023-03-02T12:29:10.626Z,46.82
2023-03-02T12:32:10.320Z,46.72
2023-03-02T12:34:39.081Z,46.64
2023-03-02T12:37:14.763Z,46.09
2023-03-02T12:39:43.535Z,46.29
2023-03-02T12:42:48.005Z,46.24
2023-03-02T12:45:31.694Z,45.61
2023-03-02T12:48:16.004Z,45.42
2023-03-02T12:50:44.920Z,45.53
2023-03-02T12:53:19.952Z,46.35
2023-03-02T12:55:48.596Z,46.20
2023-03-02T12:58:23.861Z,46.60
2023-03-02T13:00:56.940Z,46.90
2023-03-02T13:03:27.245Z,46.55
2023-03-02T13:06:15.534Z,46.25
2023-03-02T13:08:47.110Z,46.83
2023-03-02T13:11:27.797Z,46.62
2023-03-02T13:13:58.668Z,46.55
2023-03-02T13:16:33.016Z,46.87
2023-03-02T13:19:10.173Z,46.97
2023-03-02T13:21:40.283Z,47.11
2023-03-02T13:24:46.688Z,47.03
2023-03-02T13:27:24.404Z,46.84
2023-03-02T13:29:55.961Z,47.18
2023-03-02T13:32:36.331Z,46.92
2023-03-02T13:35:38.327Z,47.08
2023-03-02T13:38:16.677Z,46.60
2023-03-02T13:40:48.747Z,46.79
2023-03-02T13:43:37.034Z,46.78
2023-03-02T13:46:12.231Z,46.85
2023-03-02T13:48:41.578Z,46.69
2023-03-02T13:51:20.863Z,46.72
2023-03-02T13:54:05.227Z,46.63
2023-03-02T13:56:44.281Z,46.86
2023-03-02T13:59:15.630Z,46.47
2023-03-02T14:01:44.899Z,46.75
2023-03-02T14:04:16.879Z,46.78
2023-03-02T14:06:46.118Z,46.79
2023-03-02T14:09:15.265Z,46.85
2023-03-02T14:11:56.089Z,46.80
2023-03-02T14:14:27.619Z,46.89
2023-03-02T14:16:57.086Z,46.93
2023-03-02T14:19:26.278Z,46.94
2023-03-02T14:21:54.972Z,46.96
2023-03-02T14:24:27.500Z,46.95
2023-03-02T14:26:56.497Z,46.85
2023-03-02T14:29:34.183Z,46.87
2023-03-02T14:32:05.035Z,47.01
2023-03-02T14:34:36.771Z,46.89
2023-03-02T14:37:18.253Z,46.96
2023-03-02T14:39:53.400Z,46.92
2023-03-02T14:42:25.332Z,46.72
2023-03-02T14:44:55.489Z,46.81
2023-03-02T14:47:24.627Z,47.04
2023-03-02T14:49:53.959Z,47.09
2023-03-02T14:52:32.002Z,46.85
2023-03-02T14:55:18.797Z,46.85
2023-03-02T14:57:50.806Z,47.18
2023-03-02T15:00:19.929Z,47.05
2023-03-02T15:02:49.334Z,46.93
2023-03-02T15:05:19.416Z,47.20
2023-03-02T15:07:50.935Z,47.17
2023-03-02T15:10:22.961Z,47.17
2023-03-02T15:12:52.972Z,47.26
2023-03-02T15:15:22.648Z,47.52
2023-03-02T15:17:51.489Z,47.36
2023-03-02T15:23:56.011Z,47.69
2023-03-02T15:26:24.916Z,47.71
2023-03-02T15:28:53.627Z,47.77
2023-03-02T15:31:22.561Z,47.63
2023-03-02T15:33:52.437Z,47.85
2023-03-02T15:36:21.241Z,47.73
2023-03-02T15:38:53.815Z,48.00
2023-03-02T15:41:22.823Z,48.13
2023-03-02T15:43:53.958Z,47.99
2023-03-02T15:46:25.912Z,47.94
2023-03-02T15:48:56.122Z,48.04
2023-03-02T15:51:25.462Z,48.14
2023-03-02T15:53:54.109Z,48.13
2023-03-02T15:56:26.511Z,48.15
2023-03-02T15:58:57.240Z,48.12
2023-03-02T16:01:26.114Z,48.27
2023-03-02T16:03:54.707Z,48.34
2023-03-02T16:06:24.655Z,48.27
2023-03-02T16:08:54.178Z,48.34
2023-03-02T16:11:25.750Z,48.33
2023-03-02T16:13:54.686Z,48.52
2023-03-02T16:16:26.880Z,48.53
2023-03-02T16:18:58.311Z,48.48
2023-03-02T16:21:29.168Z,48.47
2023-03-02T16:24:04.952Z,48.49
2023-03-02T16:26:37.399Z,48.58
2023-03-02T16:29:09.873Z,48.65
2023-03-02T16:31:48.754Z,48.82
2023-03-02T16:34:19.712Z,48.65
2023-03-02T16:36:48.419Z,48.53
2023-03-02T16:39:17.773Z,48.65
2023-03-02T16:41:46.542Z,48.98
2023-03-02T16:44:16.370Z,48.78
2023-03-02T16:46:45.061Z,48.84
2023-03-02T16:49:14.502Z,48.89
2023-03-02T16:51:43.891Z,48.87
2023-03-02T16:54:16.287Z,49.01
2023-03-02T16:56:47.868Z,48.99
2023-03-02T16:59:16.902Z,49.18
2023-03-02T17:01:45.788Z,49.22
2023-03-02T17:04:15.032Z,49.22
2023-03-02T17:06:59.912Z,49.38
2023-03-02T17:09:30.856Z,49.53
2023-03-02T17:11:59.536Z,49.48
2023-03-02T17:14:28.817Z,49.46
2023-03-02T17:16:57.780Z,49.82
2023-03-02T17:19:27.263Z,49.73
2023-03-02T17:22:03.054Z,49.84
2023-03-02T17:24:33.339Z,49.90
2023-03-02T17:27:01.900Z,49.73
2023-03-02T17:29:30.677Z,49.74
2023-03-02T17:31:59.710Z,50.02
2023-03-02T17:34:31.871Z,49.87
2023-03-02T17:37:01.054Z,49.77
2023-03-02T17:39:30.109Z,50.04
2023-03-02T17:41:58.884Z,50.31
2023-03-02T17:44:28.002Z,50.25
2023-03-02T17:46:58.297Z,50.67
2023-03-02T17:49:26.934Z,50.87
2023-03-02T17:51:55.427Z,51.00
2023-03-02T17:54:24.182Z,51.17
2023-03-02T17:56:52.701Z,51.03
2023-03-02T17:59:21.825Z,50.98
2023-03-02T18:01:50.281Z,51.25
2023-03-02T18:04:27.512Z,51.32
2023-03-02T18:07:16.684Z,51.63
2023-03-02T18:09:59.941Z,51.38
2023-03-02T18:12:43.221Z,51.65
2023-03-02T18:15:37.165Z,51.99
2023-03-02T18:18:30.074Z,51.78
2023-03-02T18:21:16.705Z,52.17
2023-03-02T18:24:01.509Z,52.26
2023-03-02T18:26:49.596Z,52.39
2023-03-02T18:29:40.886Z,52.39
2023-03-02T18:32:26.236Z,52.70
2023-03-02T18:35:11.887Z,52.72
2023-03-02T18:37:59.133Z,52.69
2023-03-02T18:40:48.955Z,53.09
2023-03-02T18:43:24.341Z,53.01
2023-03-02T18:45:53.242Z,53.08
2023-03-02T18:48:21.832Z,53.03
2023-03-02T18:50:50.585Z,53.71
2023-03-02T18:53:19.728Z,54.04
2023-03-02T18:55:48.230Z,53.76
2023-03-02T18:58:19.420Z,54.10
2023-03-02T19:00:48.451Z,54.07
2023-03-02T19:03:18.095Z,54.19
2023-03-02T19:05:47.569Z,54.84
2023-03-02T19:08:16.149Z,54.35
2023-03-02T19:10:47.974Z,54.75
2023-03-02T19:13:16.695Z,54.80
2023-03-02T19:15:46.064Z,54.82
2023-03-02T19:18:16.741Z,54.83
2023-03-02T19:20:46.039Z,54.98
2023-03-02T19:23:14.806Z,54.90
2023-03-02T19:25:43.553Z,55.24
2023-03-02T19:28:12.388Z,54.85
2023-03-02T19:30:41.128Z,54.99
2023-03-02T19:33:10.513Z,55.34
2023-03-02T19:35:42.173Z,55.21
2023-03-02T19:38:11.159Z,55.42
2023-03-02T19:40:40.073Z,55.44
2023-03-02T19:43:08.862Z,55.55
2023-03-02T19:45:38.460Z,55.52
2023-03-02T19:48:07.274Z,55.73
2023-03-02T19:50:35.669Z,55.52
2023-03-02T19:53:04.269Z,55.83
2023-03-02T19:55:34.798Z,55.69
2023-03-02T19:58:05.083Z,55.89
2023-03-02T20:00:37.328Z,55.87
2023-03-02T20:03:10.292Z,56.25
2023-03-02T20:05:40.121Z,56.23
2023-03-02T20:08:09.046Z,56.12
2023-03-02T20:10:40.154Z,56.38
2023-03-02T20:13:09.743Z,56.58
2023-03-02T20:15:40.742Z,56.50
2023-03-02T20:18:11.336Z,56.29
2023-03-02T20:20:40.712Z,56.73
2023-03-02T20:23:09.185Z,56.87
2023-03-02T20:25:38.966Z,56.59
2023-03-02T20:28:12.034Z,56.83
2023-03-02T20:30:44.038Z,56.87
2023-03-02T20:33:13.816Z,56.85
2023-03-02T20:35:44.607Z,57.16
2023-03-02T20:38:20.071Z,57.13
2023-03-02T20:40:48.549Z,56.91
2023-03-02T20:43:17.490Z,57.27
2023-03-02T20:45:46.345Z,56.77
2023-03-02T20:48:15.003Z,57.14
2023-03-02T20:50:43.557Z,56.89
2023-03-02T20:53:12.441Z,57.20
2023-03-02T20:55:41.493Z,57.42
2023-03-02T20:58:10.270Z,57.55
2023-03-02T21:00:39.912Z,57.64
2023-03-02T21:03:09.266Z,57.92
2023-03-02T21:05:40.635Z,58.06
2023-03-02T21:08:09.470Z,58.00
2023-03-02T21:10:39.015Z,57.79
2023-03-02T21:13:08.626Z,57.77
2023-03-02T21:15:37.839Z,58.07
2023-03-02T21:18:06.521Z,58.32
2023-03-02T21:20:36.219Z,58.47
2023-03-02T21:23:05.265Z,58.36
2023-03-02T21:25:34.213Z,58.48
2023-03-02T21:28:02.648Z,58.63
2023-03-02T21:30:34.215Z,58.45
2023-03-02T21:33:04.196Z,58.42
2023-03-02T21:35:32.877Z,58.71
2023-03-02T21:38:05.219Z,58.76
2023-03-02T21:40:40.872Z,58.77
2023-03-02T21:43:09.981Z,59.35
2023-03-02T21:45:38.893Z,59.17
2023-03-02T21:48:07.758Z,59.05
2023-03-02T21:50:37.998Z,59.01
2023-03-02T21:53:06.939Z,58.97
2023-03-02T21:55:35.412Z,59.33
2023-03-02T21:58:04.511Z,59.37
2023-03-02T22:00:35.134Z,59.26
2023-03-02T22:03:03.755Z,59.10
2023-03-02T22:05:32.975Z,59.20
2023-03-02T22:08:01.538Z,59.19
2023-03-02T22:10:49.805Z,59.07
2023-03-02T22:13:24.568Z,59.02
2023-03-02T22:16:11.130Z,59.60
2023-03-02T22:18:39.682Z,59.61
2023-03-02T22:21:27.357Z,59.59
2023-03-02T22:24:22.592Z,59.98
2023-03-02T22:26:54.850Z,59.83
2023-03-02T22:29:27.253Z,59.69
2023-03-02T22:31:56.928Z,60.36
2023-03-02T22:34:27.194Z,59.76
2023-03-02T22:37:17.984Z,59.58
2023-03-02T22:39:47.518Z,59.60
2023-03-02T22:42:20.448Z,59.59
2023-03-02T22:45:13.160Z,59.83
2023-03-02T22:47:43.006Z,60.10
2023-03-02T22:50:17.651Z,60.09
2023-03-02T22:52:46.648Z,60.06
2023-03-02T22:55:36.472Z,59.68
2023-03-02T22:58:17.692Z,59.76
2023-03-02T23:00:52.948Z,59.91
2023-03-02T23:03:25.997Z,60.52
2023-03-02T23:05:54.912Z,59.88
2023-03-02T23:08:28.674Z,60.00
2023-03-02T23:10:58.177Z,60.06
2023-03-02T23:13:36.493Z,60.48
2023-03-02T23:16:15.531Z,60.23
2023-03-02T23:18:46.227Z,60.03
2023-03-02T23:21:20.215Z,60.64
2023-03-02T23:23:50.444Z,60.57
2023-03-02T23:26:19.827Z,60.65
2023-03-02T23:28:49.300Z,60.51
2023-03-02T23:31:18.734Z,60.32
2023-03-02T23:33:47.507Z,60.77
2023-03-02T23:36:15.932Z,60.92
2023-03-02T23:38:44.663Z,60.85
2023-03-02T23:41:13.506Z,60.96
2023-03-02T23:43:41.907Z,60.81
2023-03-02T23:46:14.537Z,60.76
2023-03-02T23:48:43.513Z,61.06
2023-03-02T23:51:12.862Z,60.54
2023-03-02T23:53:41.435Z,61.22
2023-03-02T23:56:10.037Z,61.30
2023-03-02T23:58:38.958Z,61.44
